Norwich, Connecticut
Current Conditions -  °F | °C
As of 10:56 PM on Saturday 22 Nov 2014 (Local Time) from KGON Reporting Station
Overcast Overcast  
Wind Chill: 37°   Ceiling: 6500
Heat Index: 45°   Visibility: 7mi
Dew Point: 29°   Wind: 22mph
Humidity: 53%   Direction: 250°WSW
Pressure: 30.16"   Gusts: 29mph
Location:  41.53°N, 72.08°W
Report Text: KGON 230356Z AUTO 25019G25KT 7SM OVC065 07/M02 A3016 RMK AO2 PK WND 25028/0258 SLP213 T00721017
Loading
Personal Weather Stations






























Interactive Weather Map New forecast layout! Learn more

10-Day Weather Forecast

Advertisements
Track Severe Weather on mobile